Time;durP1;ratioP1;P1;durP2;ratioP2;P2;SDS_P1;SDS_P2;PMS_P1;PMS_P2;Temp;Humidity;BMP_temperature;BMP_pressure;BME280_temperature;BME280_humidity;BME280_pressure;Samples;Min_cycle;Max_cycle;Signal;HPM_P1;HPM_P2
2019/08/25 00:01:04;;;;;;;3.46;2.83;;;;;;;22.39;56.11;100701.34;;;;-57
2019/08/25 00:04:03;;;;;;;3.67;2.67;;;;;;;22.39;56.14;100703.09;;;;-57
2019/08/25 00:07:03;;;;;;;3.03;2.73;;;;;;;22.39;56.14;100700.49;;;;-57
2019/08/25 00:10:03;;;;;;;3.92;2.81;;;;;;;22.37;56.13;100701.87;;;;-58
2019/08/25 00:13:03;;;;;;;3.87;2.91;;;;;;;22.37;56.12;100700.86;;;;-57
2019/08/25 00:16:04;;;;;;;3.03;2.70;;;;;;;22.37;56.12;100703.22;;;;-50
2019/08/25 00:19:03;;;;;;;3.62;2.79;;;;;;;22.37;56.12;100701.77;;;;-57
2019/08/25 00:22:03;;;;;;;3.01;2.62;;;;;;;22.36;56.15;100703.17;;;;-49
2019/08/25 00:25:03;;;;;;;3.11;2.81;;;;;;;22.37;56.11;100701.94;;;;-50
2019/08/25 00:28:03;;;;;;;2.86;2.65;;;;;;;22.36;56.16;100702.58;;;;-58
2019/08/25 00:31:04;;;;;;;3.23;2.90;;;;;;;22.36;56.10;100709.91;;;;-50
2019/08/25 00:34:03;;;;;;;3.28;2.74;;;;;;;22.36;56.19;100705.60;;;;-50
2019/08/25 00:37:03;;;;;;;3.35;2.71;;;;;;;22.34;56.15;100704.45;;;;-51
2019/08/25 00:40:03;;;;;;;3.12;2.82;;;;;;;22.35;56.19;100707.75;;;;-57
2019/08/25 00:43:04;;;;;;;2.96;2.69;;;;;;;22.34;56.19;100711.25;;;;-57
2019/08/25 00:46:03;;;;;;;3.25;2.77;;;;;;;22.34;56.13;100715.96;;;;-57
2019/08/25 00:49:03;;;;;;;4.17;2.87;;;;;;;22.34;56.16;100714.69;;;;-58
2019/08/25 00:52:04;;;;;;;2.74;2.54;;;;;;;22.34;56.18;100715.29;;;;-49
2019/08/25 00:55:03;;;;;;;3.13;2.83;;;;;;;22.33;56.23;100715.66;;;;-50
2019/08/25 00:58:03;;;;;;;3.71;2.88;;;;;;;22.33;56.12;100715.22;;;;-51
2019/08/25 01:01:04;;;;;;;5.65;2.87;;;;;;;22.33;56.18;100714.55;;;;-50
2019/08/25 01:04:03;;;;;;;3.29;2.90;;;;;;;22.32;56.19;100707.61;;;;-58
2019/08/25 01:07:03;;;;;;;3.89;2.88;;;;;;;22.32;56.16;100707.77;;;;-49
2019/08/25 01:10:03;;;;;;;3.04;2.78;;;;;;;22.32;56.23;100710.91;;;;-58
2019/08/25 01:13:03;;;;;;;3.81;2.73;;;;;;;22.31;56.19;100711.71;;;;-58
2019/08/25 01:16:03;;;;;;;3.57;2.89;;;;;;;22.31;56.17;100712.62;;;;-58
2019/08/25 01:19:09;;;;;;;4.23;2.75;;;;;;;22.31;56.22;100714.41;;;;-57
2019/08/25 01:22:03;;;;;;;3.61;2.75;;;;;;;22.31;56.17;100718.27;;;;-57
2019/08/25 01:25:03;;;;;;;3.19;2.89;;;;;;;22.31;56.17;100717.27;;;;-57
2019/08/25 01:28:04;;;;;;;2.77;2.57;;;;;;;22.30;56.26;100713.86;;;;-57
2019/08/25 01:31:03;;;;;;;3.89;2.76;;;;;;;22.31;56.16;100714.41;;;;-50
2019/08/25 01:34:03;;;;;;;3.23;2.93;;;;;;;22.31;56.22;100717.59;;;;-49
2019/08/25 01:37:03;;;;;;;3.31;2.79;;;;;;;22.31;56.19;100713.97;;;;-50
2019/08/25 01:40:03;;;;;;;3.01;2.71;;;;;;;22.30;56.19;100718.50;;;;-51
2019/08/25 01:43:03;;;;;;;3.95;2.71;;;;;;;22.29;56.25;100714.16;;;;-51
2019/08/25 01:46:03;;;;;;;3.11;2.81;;;;;;;22.30;56.16;100719.85;;;;-51
2019/08/25 01:49:03;;;;;;;3.29;2.99;;;;;;;22.30;56.26;100720.09;;;;-58
2019/08/25 01:52:03;;;;;;;3.16;2.88;;;;;;;22.30;56.26;100717.83;;;;-58
2019/08/25 01:55:03;;;;;;;3.11;2.81;;;;;;;22.28;56.19;100718.66;;;;-49
2019/08/25 01:58:03;;;;;;;3.34;2.82;;;;;;;22.29;56.26;100720.89;;;;-49
2019/08/25 02:01:03;;;;;;;3.07;2.76;;;;;;;22.28;56.27;100716.65;;;;-50
2019/08/25 02:04:03;;;;;;;3.11;2.81;;;;;;;22.28;56.29;100718.73;;;;-58
2019/08/25 02:07:03;;;;;;;3.27;2.82;;;;;;;22.28;56.24;100718.33;;;;-50
2019/08/25 02:10:03;;;;;;;4.41;3.02;;;;;;;22.27;56.25;100714.86;;;;-50
2019/08/25 02:13:03;;;;;;;3.05;2.81;;;;;;;22.28;56.20;100719.23;;;;-50
2019/08/25 02:16:03;;;;;;;2.89;2.68;;;;;;;22.27;56.27;100718.73;;;;-50
2019/08/25 02:19:03;;;;;;;3.11;2.76;;;;;;;22.27;56.26;100718.39;;;;-50
2019/08/25 02:22:03;;;;;;;3.20;2.71;;;;;;;22.27;56.22;100712.97;;;;-50
2019/08/25 02:25:03;;;;;;;3.10;2.89;;;;;;;22.26;56.32;100714.16;;;;-49
2019/08/25 02:28:11;;;;;;;3.43;3.02;;;;;;;22.26;56.32;100709.44;;;;-58
2019/08/25 02:31:10;;;;;;;3.18;2.88;;;;;;;22.26;56.32;100710.78;;;;-50
2019/08/25 02:34:03;;;;;;;3.15;2.85;;;;;;;22.26;56.27;100711.93;;;;-56
2019/08/25 02:37:03;;;;;;;3.31;3.01;;;;;;;22.25;56.25;100711.16;;;;-51
2019/08/25 02:40:04;;;;;;;3.23;2.95;;;;;;;22.26;56.30;100711.29;;;;-50
2019/08/25 02:43:03;;;;;;;3.18;2.86;;;;;;;22.25;56.27;100720.23;;;;-50
2019/08/25 02:46:03;;;;;;;3.50;3.04;;;;;;;22.25;56.29;100719.16;;;;-49
2019/08/25 02:49:03;;;;;;;3.05;2.77;;;;;;;22.25;56.24;100719.46;;;;-49
2019/08/25 02:52:03;;;;;;;3.32;3.01;;;;;;;22.25;56.29;100718.11;;;;-50
2019/08/25 02:55:03;;;;;;;3.37;3.01;;;;;;;22.25;56.29;100717.95;;;;-56
2019/08/25 02:58:03;;;;;;;3.11;2.80;;;;;;;22.24;56.30;100718.28;;;;-57
2019/08/25 03:01:04;;;;;;;3.35;3.05;;;;;;;22.24;56.29;100721.31;;;;-58
2019/08/25 03:04:03;;;;;;;3.14;2.83;;;;;;;22.25;56.27;100724.61;;;;-58
2019/08/25 03:07:03;;;;;;;3.31;3.01;;;;;;;22.24;56.34;100721.21;;;;-57
2019/08/25 03:10:03;;;;;;;3.38;3.08;;;;;;;22.24;56.31;100724.81;;;;-57
2019/08/25 03:13:03;;;;;;;3.65;3.00;;;;;;;22.24;56.27;100730.30;;;;-50
2019/08/25 03:16:03;;;;;;;3.17;2.87;;;;;;;22.24;56.33;100736.08;;;;-58
2019/08/25 03:19:03;;;;;;;3.47;3.17;;;;;;;22.24;56.32;100735.95;;;;-58
2019/08/25 03:22:04;;;;;;;3.43;3.13;;;;;;;22.23;56.30;100736.42;;;;-58
2019/08/25 03:25:03;;;;;;;3.23;2.93;;;;;;;22.23;56.33;100736.82;;;;-58
2019/08/25 03:28:03;;;;;;;3.59;3.29;;;;;;;22.23;56.38;100743.72;;;;-58
2019/08/25 03:31:03;;;;;;;2.97;2.77;;;;;;;22.23;56.34;100747.75;;;;-58
2019/08/25 03:34:03;;;;;;;3.35;3.05;;;;;;;22.23;56.35;100749.17;;;;-58
2019/08/25 03:37:03;;;;;;;3.35;2.98;;;;;;;22.22;56.36;100746.70;;;;-58
2019/08/25 03:40:04;;;;;;;3.15;2.92;;;;;;;22.22;56.39;100745.53;;;;-50
2019/08/25 03:43:03;;;;;;;3.21;2.95;;;;;;;22.22;56.38;100747.05;;;;-50
2019/08/25 03:46:11;;;;;;;3.37;3.07;;;;;;;22.22;56.37;100747.05;;;;-57
2019/08/25 03:49:06;;;;;;;3.19;2.89;;;;;;;22.21;56.32;100739.88;;;;-58
2019/08/25 03:52:03;;;;;;;3.43;3.13;;;;;;;22.22;56.37;100746.03;;;;-58
2019/08/25 03:55:03;;;;;;;3.12;2.91;;;;;;;22.22;56.39;100749.13;;;;-50
2019/08/25 03:58:03;;;;;;;3.39;3.11;;;;;;;22.21;56.36;100746.09;;;;-50
2019/08/25 04:01:03;;;;;;;3.19;2.88;;;;;;;22.22;56.35;100749.80;;;;-49
2019/08/25 04:04:03;;;;;;;3.43;3.10;;;;;;;22.21;56.38;100754.34;;;;-51
2019/08/25 04:07:03;;;;;;;3.34;3.07;;;;;;;22.21;56.36;100754.34;;;;-51
2019/08/25 04:10:03;;;;;;;3.58;3.27;;;;;;;22.21;56.32;100759.02;;;;-50
2019/08/25 04:13:03;;;;;;;3.34;3.04;;;;;;;22.20;56.36;100757.16;;;;-58
2019/08/25 04:16:03;;;;;;;3.27;3.01;;;;;;;22.21;56.35;100759.96;;;;-58
2019/08/25 04:19:03;;;;;;;3.27;2.97;;;;;;;22.21;56.36;100764.33;;;;-50
2019/08/25 04:22:03;;;;;;;3.41;3.11;;;;;;;22.20;56.37;100770.69;;;;-49
2019/08/25 04:25:03;;;;;;;3.29;3.00;;;;;;;22.21;56.32;100773.66;;;;-49
2019/08/25 04:28:03;;;;;;;3.41;2.96;;;;;;;22.20;56.37;100777.08;;;;-49
2019/08/25 04:31:03;;;;;;;3.28;2.99;;;;;;;22.20;56.40;100776.58;;;;-49
2019/08/25 04:34:03;;;;;;;3.25;2.83;;;;;;;22.20;56.33;100776.64;;;;-57
2019/08/25 04:37:03;;;;;;;3.39;3.09;;;;;;;22.20;56.33;100776.84;;;;-58
2019/08/25 04:40:03;;;;;;;3.28;2.98;;;;;;;22.19;56.34;100776.14;;;;-49
2019/08/25 04:43:03;;;;;;;3.21;2.91;;;;;;;22.19;56.32;100775.73;;;;-58
2019/08/25 04:46:03;;;;;;;3.71;2.90;;;;;;;22.19;56.36;100777.14;;;;-49
2019/08/25 04:49:04;;;;;;;3.13;2.84;;;;;;;22.18;56.38;100777.72;;;;-56
2019/08/25 04:52:21;;;;;;;2.85;2.65;;;;;;;22.18;56.37;100775.70;;;;-58
2019/08/25 04:55:03;;;;;;;3.43;3.13;;;;;;;22.18;56.37;100775.83;;;;-57
2019/08/25 04:58:03;;;;;;;3.09;2.82;;;;;;;22.18;56.31;100776.70;;;;-50
2019/08/25 05:01:03;;;;;;;3.10;2.80;;;;;;;22.18;56.33;100774.08;;;;-57
2019/08/25 05:04:03;;;;;;;3.15;2.85;;;;;;;22.17;56.34;100775.83;;;;-57
2019/08/25 05:07:03;;;;;;;3.09;2.89;;;;;;;22.18;56.36;100780.64;;;;-51
2019/08/25 05:10:03;;;;;;;3.02;2.79;;;;;;;22.18;56.36;100782.49;;;;-57
2019/08/25 05:13:03;;;;;;;3.34;3.04;;;;;;;22.18;56.37;100777.91;;;;-57
2019/08/25 05:16:03;;;;;;;3.17;2.93;;;;;;;22.16;56.35;100773.27;;;;-57
2019/08/25 05:19:03;;;;;;;2.93;2.73;;;;;;;22.18;56.34;100775.73;;;;-57
2019/08/25 05:22:03;;;;;;;3.14;2.88;;;;;;;22.17;56.39;100775.89;;;;-57
2019/08/25 05:25:03;;;;;;;3.33;3.03;;;;;;;22.16;56.31;100773.09;;;;-57
2019/08/25 05:28:03;;;;;;;11.20;9.27;;;;;;;22.06;58.68;100775.73;;;;-50
2019/08/25 05:31:03;;;;;;;11.22;9.73;;;;;;;22.00;59.07;100779.43;;;;-50
2019/08/25 05:34:03;;;;;;;12.27;11.05;;;;;;;21.91;59.73;100779.45;;;;-50
2019/08/25 05:37:03;;;;;;;12.65;11.35;;;;;;;21.89;60.01;100779.27;;;;-56
2019/08/25 05:40:03;;;;;;;12.54;11.24;;;;;;;21.84;60.31;100781.76;;;;-56
2019/08/25 05:43:03;;;;;;;13.69;12.31;;;;;;;21.81;60.45;100783.76;;;;-58
2019/08/25 05:46:03;;;;;;;14.03;12.45;;;;;;;21.78;60.74;100783.64;;;;-51
2019/08/25 05:49:06;;;;;;;15.73;12.37;;;;;;;21.77;60.80;100785.78;;;;-57
2019/08/25 05:52:03;;;;;;;13.23;11.93;;;;;;;21.77;60.76;100780.97;;;;-57
2019/08/25 05:55:03;;;;;;;13.33;12.01;;;;;;;21.80;60.58;100786.97;;;;-51
2019/08/25 05:58:03;;;;;;;12.72;11.47;;;;;;;21.78;61.04;100785.32;;;;-51
2019/08/25 06:01:04;;;;;;;12.91;11.70;;;;;;;21.76;61.18;100786.81;;;;-51
2019/08/25 06:04:03;;;;;;;13.57;12.07;;;;;;;21.75;61.36;100787.72;;;;-51
2019/08/25 06:07:03;;;;;;;13.68;12.37;;;;;;;21.75;61.46;100791.08;;;;-51
2019/08/25 06:10:03;;;;;;;13.52;11.99;;;;;;;21.75;61.54;100787.11;;;;-50
2019/08/25 06:13:03;;;;;;;13.35;12.05;;;;;;;21.75;61.65;100785.27;;;;-50
2019/08/25 06:16:03;;;;;;;13.27;11.97;;;;;;;21.75;61.75;100789.73;;;;-50
2019/08/25 06:19:03;;;;;;;13.69;12.18;;;;;;;21.77;61.89;100794.42;;;;-57
2019/08/25 06:22:04;;;;;;;17.57;12.38;;;;;;;21.78;61.80;100795.14;;;;-57
2019/08/25 06:25:03;;;;;;;13.70;12.32;;;;;;;21.79;62.01;100794.33;;;;-58
2019/08/25 06:28:03;;;;;;;12.94;11.63;;;;;;;21.79;62.14;100793.09;;;;-58
2019/08/25 06:31:03;;;;;;;13.09;11.77;;;;;;;21.81;62.36;100797.95;;;;-59
2019/08/25 06:34:03;;;;;;;14.04;12.64;;;;;;;21.83;62.27;100801.39;;;;-60
2019/08/25 06:37:03;;;;;;;14.30;12.89;;;;;;;21.85;62.29;100806.52;;;;-57
2019/08/25 06:40:03;;;;;;;13.65;12.07;;;;;;;21.87;61.95;100808.21;;;;-57
2019/08/25 06:43:03;;;;;;;13.83;11.98;;;;;;;21.91;61.77;100812.55;;;;-49
2019/08/25 06:46:03;;;;;;;14.11;12.35;;;;;;;21.93;61.45;100817.27;;;;-51
2019/08/25 06:49:04;;;;;;;14.03;12.55;;;;;;;21.95;61.32;100816.23;;;;-49
2019/08/25 06:52:03;;;;;;;13.39;12.05;;;;;;;21.96;61.15;100822.56;;;;-49
2019/08/25 06:55:03;;;;;;;13.67;12.27;;;;;;;21.98;61.20;100826.11;;;;-49
2019/08/25 06:58:03;;;;;;;14.27;11.93;;;;;;;22.00;60.98;100824.67;;;;-51
2019/08/25 07:01:03;;;;;;;13.58;12.03;;;;;;;22.00;60.87;100822.83;;;;-51
2019/08/25 07:04:08;;;;;;;13.09;11.79;;;;;;;22.01;60.67;100828.02;;;;-51
2019/08/25 07:07:07;;;;;;;13.29;11.59;;;;;;;22.02;60.38;100827.11;;;;-49
2019/08/25 07:10:08;;;;;;;12.41;11.11;;;;;;;22.03;60.23;100828.66;;;;-57
2019/08/25 07:13:03;;;;;;;12.43;11.22;;;;;;;22.04;60.09;100835.09;;;;-55
2019/08/25 07:16:03;;;;;;;12.08;10.88;;;;;;;22.04;59.98;100836.27;;;;-51
2019/08/25 07:19:03;;;;;;;11.95;10.76;;;;;;;22.04;59.87;100835.77;;;;-49
2019/08/25 07:22:03;;;;;;;11.98;10.87;;;;;;;22.05;59.76;100834.86;;;;-57
2019/08/25 07:25:03;;;;;;;11.59;10.53;;;;;;;22.05;59.68;100830.94;;;;-51
2019/08/25 07:28:03;;;;;;;12.15;10.98;;;;;;;22.05;59.60;100832.67;;;;-57
2019/08/25 07:31:03;;;;;;;12.11;10.91;;;;;;;22.05;59.51;100832.44;;;;-49
2019/08/25 07:34:03;;;;;;;11.70;10.62;;;;;;;22.05;59.43;100830.43;;;;-56
2019/08/25 07:37:03;;;;;;;11.75;10.65;;;;;;;22.06;59.37;100833.39;;;;-49
2019/08/25 07:40:03;;;;;;;11.43;10.25;;;;;;;22.06;59.33;100833.83;;;;-51
2019/08/25 07:43:03;;;;;;;11.07;9.96;;;;;;;22.06;59.22;100833.39;;;;-57
2019/08/25 07:46:03;;;;;;;11.79;10.69;;;;;;;22.06;59.19;100836.35;;;;-56
2019/08/25 07:49:03;;;;;;;12.09;10.93;;;;;;;22.07;59.14;100837.97;;;;-50
2019/08/25 07:52:03;;;;;;;10.94;9.88;;;;;;;22.07;59.13;100842.18;;;;-49
2019/08/25 07:55:03;;;;;;;11.12;10.12;;;;;;;22.07;59.04;100840.66;;;;-49
2019/08/25 07:58:03;;;;;;;11.16;10.03;;;;;;;22.07;58.97;100841.00;;;;-55
2019/08/25 08:01:03;;;;;;;11.04;10.07;;;;;;;22.07;58.91;100840.16;;;;-57
2019/08/25 08:04:03;;;;;;;10.80;9.80;;;;;;;22.07;58.93;100839.92;;;;-57
2019/08/25 08:07:03;;;;;;;11.10;9.88;;;;;;;22.08;59.16;100839.19;;;;-58
2019/08/25 08:10:04;;;;;;;10.88;9.78;;;;;;;22.10;59.12;100839.88;;;;-58
2019/08/25 08:13:03;;;;;;;11.17;10.12;;;;;;;22.13;59.12;100837.91;;;;-59
2019/08/25 08:16:03;;;;;;;10.55;9.61;;;;;;;22.17;59.07;100835.91;;;;-60
2019/08/25 08:19:03;;;;;;;10.54;9.52;;;;;;;22.19;59.14;100835.80;;;;-57
2019/08/25 08:22:03;;;;;;;10.77;9.75;;;;;;;22.21;59.20;100833.98;;;;-50
2019/08/25 08:25:03;;;;;;;10.58;9.58;;;;;;;22.23;59.12;100831.55;;;;-56
2019/08/25 08:28:03;;;;;;;10.66;9.59;;;;;;;22.25;59.21;100831.89;;;;-59
2019/08/25 08:31:03;;;;;;;11.10;9.41;;;;;;;22.26;59.12;100835.02;;;;-58
2019/08/25 08:34:03;;;;;;;10.34;9.34;;;;;;;22.28;59.12;100839.31;;;;-59
2019/08/25 08:37:04;;;;;;;10.39;9.37;;;;;;;22.30;59.12;100841.58;;;;-56
2019/08/25 08:40:03;;;;;;;10.23;9.24;;;;;;;22.31;58.98;100842.69;;;;-59
2019/08/25 08:43:03;;;;;;;10.65;9.20;;;;;;;22.33;58.92;100839.23;;;;-59
2019/08/25 08:46:03;;;;;;;10.34;9.27;;;;;;;22.33;58.96;100835.80;;;;-59
2019/08/25 08:49:03;;;;;;;10.26;9.26;;;;;;;22.34;59.04;100833.75;;;;-59
2019/08/25 08:52:03;;;;;;;11.39;9.49;;;;;;;22.35;59.04;100827.50;;;;-52
2019/08/25 08:55:03;;;;;;;10.68;9.26;;;;;;;22.35;58.94;100827.56;;;;-61
2019/08/25 08:58:03;;;;;;;9.71;8.80;;;;;;;22.35;58.94;100827.50;;;;-61
2019/08/25 09:01:08;;;;;;;10.01;9.03;;;;;;;22.35;58.96;100824.20;;;;-61
2019/08/25 09:04:03;;;;;;;9.95;8.99;;;;;;;22.34;58.84;100819.22;;;;-61
2019/08/25 09:07:03;;;;;;;10.33;8.59;;;;;;;22.34;58.72;100824.91;;;;-61
2019/08/25 09:10:03;;;;;;;9.70;8.69;;;;;;;22.34;58.78;100823.93;;;;-61
2019/08/25 09:13:03;;;;;;;9.61;8.68;;;;;;;22.35;58.85;100819.76;;;;-60
2019/08/25 09:16:03;;;;;;;9.76;8.75;;;;;;;22.36;58.71;100812.39;;;;-49
2019/08/25 09:19:03;;;;;;;9.65;8.61;;;;;;;22.37;58.82;100809.41;;;;-49
2019/08/25 09:22:03;;;;;;;11.37;9.06;;;;;;;22.40;59.09;100808.47;;;;-52
2019/08/25 09:25:03;;;;;;;11.31;8.94;;;;;;;22.41;59.30;100805.41;;;;-48
2019/08/25 09:28:03;;;;;;;13.88;9.60;;;;;;;22.45;59.35;100807.82;;;;-50
2019/08/25 09:31:03;;;;;;;14.52;8.81;;;;;;;22.47;59.13;100810.32;;;;-48
2019/08/25 09:34:03;;;;;;;10.63;8.55;;;;;;;22.49;59.05;100808.31;;;;-52
2019/08/25 09:37:03;;;;;;;16.32;8.99;;;;;;;22.50;59.37;100806.43;;;;-50
2019/08/25 09:40:03;;;;;;;14.70;9.03;;;;;;;22.51;59.30;100805.73;;;;-50
2019/08/25 09:43:03;;;;;;;15.24;8.92;;;;;;;22.54;59.52;100805.23;;;;-51
2019/08/25 09:46:04;;;;;;;14.27;9.05;;;;;;;22.55;59.34;100801.12;;;;-52
2019/08/25 09:49:03;;;;;;;15.05;8.90;;;;;;;22.55;59.33;100798.20;;;;-51
2019/08/25 09:52:04;;;;;;;17.17;8.80;;;;;;;22.57;59.19;100797.39;;;;-50
2019/08/25 09:55:04;;;;;;;17.85;8.90;;;;;;;22.57;59.39;100798.17;;;;-50
2019/08/25 09:58:03;;;;;;;15.93;8.88;;;;;;;22.59;59.40;100797.47;;;;-51
2019/08/25 10:01:03;;;;;;;15.66;8.81;;;;;;;22.60;59.35;100797.61;;;;-54
2019/08/25 10:04:03;;;;;;;15.61;8.50;;;;;;;22.62;59.14;100796.27;;;;-52
2019/08/25 10:07:04;;;;;;;16.39;8.56;;;;;;;22.64;59.09;100795.40;;;;-52
2019/08/25 10:10:03;;;;;;;13.05;8.42;;;;;;;22.65;59.01;100792.47;;;;-51
2019/08/25 10:13:04;;;;;;;13.37;8.17;;;;;;;22.66;59.04;100796.15;;;;-49
2019/08/25 10:16:03;;;;;;;10.83;8.21;;;;;;;22.66;59.00;100793.12;;;;-51
2019/08/25 10:19:04;;;;;;;11.61;8.23;;;;;;;22.68;59.09;100792.42;;;;-51
2019/08/25 10:22:04;;;;;;;12.93;8.45;;;;;;;22.69;59.11;100785.99;;;;-51
2019/08/25 10:25:04;;;;;;;11.79;8.22;;;;;;;22.69;59.05;100788.69;;;;-50
2019/08/25 10:28:03;;;;;;;11.65;7.76;;;;;;;22.70;59.10;100790.81;;;;-49
2019/08/25 10:31:04;;;;;;;9.80;7.75;;;;;;;22.70;59.00;100789.39;;;;-51
2019/08/25 10:34:04;;;;;;;12.37;7.69;;;;;;;22.71;58.98;100787.01;;;;-51
2019/08/25 10:37:04;;;;;;;8.89;7.55;;;;;;;22.72;59.06;100781.02;;;;-51
2019/08/25 10:40:04;;;;;;;9.07;7.77;;;;;;;22.72;58.92;100776.77;;;;-53
2019/08/25 10:43:03;;;;;;;11.58;8.13;;;;;;;22.72;58.93;100769.94;;;;-50
2019/08/25 10:46:03;;;;;;;12.27;7.87;;;;;;;22.75;58.91;100772.20;;;;-51
2019/08/25 10:49:03;;;;;;;10.79;7.96;;;;;;;22.75;58.89;100772.67;;;;-48
2019/08/25 10:52:03;;;;;;;8.26;7.47;;;;;;;22.76;58.97;100770.25;;;;-48
2019/08/25 10:55:03;;;;;;;11.04;8.16;;;;;;;22.77;58.92;100771.77;;;;-52
2019/08/25 10:58:03;;;;;;;12.08;7.49;;;;;;;22.76;58.82;100772.37;;;;-51
2019/08/25 11:01:03;;;;;;;10.70;7.75;;;;;;;22.77;58.88;100770.69;;;;-52
2019/08/25 11:04:03;;;;;;;8.49;7.56;;;;;;;22.77;58.86;100769.37;;;;-50
2019/08/25 11:07:03;;;;;;;10.69;7.43;;;;;;;22.78;58.94;100770.28;;;;-50
2019/08/25 11:10:03;;;;;;;13.73;7.78;;;;;;;22.79;58.72;100769.98;;;;-52
2019/08/25 11:13:03;;;;;;;13.87;7.85;;;;;;;22.78;58.93;100768.80;;;;-48
2019/08/25 11:16:03;;;;;;;12.61;7.79;;;;;;;22.78;58.86;100768.70;;;;-48
2019/08/25 11:19:03;;;;;;;10.03;7.67;;;;;;;22.79;58.68;100768.06;;;;-47
2019/08/25 11:22:03;;;;;;;12.04;7.96;;;;;;;22.79;58.61;100760.15;;;;-52
2019/08/25 11:25:03;;;;;;;13.73;7.87;;;;;;;22.78;58.69;100760.18;;;;-51
2019/08/25 11:28:03;;;;;;;10.75;8.01;;;;;;;22.77;58.64;100751.66;;;;-51
2019/08/25 11:31:03;;;;;;;12.27;7.60;;;;;;;22.77;58.64;100751.70;;;;-51
2019/08/25 11:34:03;;;;;;;10.17;7.47;;;;;;;22.75;58.57;100749.77;;;;-53
2019/08/25 11:37:03;;;;;;;9.04;7.42;;;;;;;22.76;58.53;100748.59;;;;-51
2019/08/25 11:40:03;;;;;;;9.88;7.59;;;;;;;22.75;58.51;100748.22;;;;-51
2019/08/25 11:43:03;;;;;;;9.59;7.79;;;;;;;22.75;58.51;100748.89;;;;-51
2019/08/25 11:46:03;;;;;;;10.21;7.54;;;;;;;22.74;58.45;100744.65;;;;-52
2019/08/25 11:49:03;;;;;;;13.13;7.43;;;;;;;22.74;58.51;100740.44;;;;-51
2019/08/25 11:52:03;;;;;;;8.34;7.04;;;;;;;22.73;58.39;100741.28;;;;-50
2019/08/25 11:55:03;;;;;;;10.51;7.12;;;;;;;22.73;58.35;100740.74;;;;-50
2019/08/25 11:58:03;;;;;;;10.21;7.29;;;;;;;22.72;58.34;100744.81;;;;-50
2019/08/25 12:01:03;;;;;;;9.27;7.29;;;;;;;22.71;58.30;100745.22;;;;-50
2019/08/25 12:04:03;;;;;;;10.24;7.41;;;;;;;22.71;58.26;100743.30;;;;-50
2019/08/25 12:07:03;;;;;;;8.59;7.07;;;;;;;22.70;58.24;100737.94;;;;-50
2019/08/25 12:10:03;;;;;;;8.25;7.00;;;;;;;22.70;58.19;100739.32;;;;-50
2019/08/25 12:13:03;;;;;;;8.39;7.12;;;;;;;22.70;58.18;100730.63;;;;-51
2019/08/25 12:16:03;;;;;;;9.83;6.92;;;;;;;22.69;58.18;100736.42;;;;-51
2019/08/25 12:19:03;;;;;;;7.89;7.09;;;;;;;22.68;58.19;100740.09;;;;-50
2019/08/25 12:22:04;;;;;;;14.11;6.97;;;;;;;22.68;58.21;100735.87;;;;-52
2019/08/25 12:25:03;;;;;;;8.25;6.69;;;;;;;22.69;58.22;100739.79;;;;-47
2019/08/25 12:28:03;;;;;;;10.73;6.75;;;;;;;22.71;58.25;100727.88;;;;-51
2019/08/25 12:31:03;;;;;;;8.59;7.03;;;;;;;22.72;58.31;100733.40;;;;-50
2019/08/25 12:34:03;;;;;;;7.55;6.75;;;;;;;22.74;58.27;100723.84;;;;-52
2019/08/25 12:37:03;;;;;;;7.37;6.67;;;;;;;22.75;58.30;100720.84;;;;-50
2019/08/25 12:40:03;;;;;;;7.03;6.25;;;;;;;22.76;58.21;100722.77;;;;-51
2019/08/25 12:43:04;;;;;;;9.47;6.60;;;;;;;22.76;58.24;100727.88;;;;-50
2019/08/25 12:46:03;;;;;;;7.43;6.73;;;;;;;22.77;58.28;100731.83;;;;-50
2019/08/25 12:49:03;;;;;;;7.87;6.73;;;;;;;22.78;58.26;100723.34;;;;-53
2019/08/25 12:52:03;;;;;;;8.28;6.71;;;;;;;22.79;58.27;100723.78;;;;-48
2019/08/25 12:55:03;;;;;;;11.73;6.50;;;;;;;22.81;58.30;100722.60;;;;-52
2019/08/25 12:58:03;;;;;;;7.13;6.43;;;;;;;22.81;58.26;100723.00;;;;-50
2019/08/25 13:01:04;;;;;;;7.41;6.63;;;;;;;22.81;58.30;100719.13;;;;-48
2019/08/25 13:04:03;;;;;;;8.51;6.65;;;;;;;22.82;58.31;100715.80;;;;-48
2019/08/25 13:07:03;;;;;;;7.09;6.38;;;;;;;22.83;58.26;100714.25;;;;-49
2019/08/25 13:10:03;;;;;;;7.79;6.83;;;;;;;22.81;58.37;100711.72;;;;-51
2019/08/25 13:13:03;;;;;;;7.63;6.54;;;;;;;22.82;58.40;100711.35;;;;-48
2019/08/25 13:16:03;;;;;;;7.02;6.24;;;;;;;22.83;58.30;100707.85;;;;-49
2019/08/25 13:19:03;;;;;;;7.38;6.65;;;;;;;22.84;58.22;100703.00;;;;-50
2019/08/25 13:22:03;;;;;;;8.27;6.72;;;;;;;22.84;58.27;100701.32;;;;-50
2019/08/25 13:25:03;;;;;;;7.48;6.59;;;;;;;22.82;58.42;100698.56;;;;-49
2019/08/25 13:28:04;;;;;;;8.07;6.46;;;;;;;22.84;58.35;100695.59;;;;-50
2019/08/25 13:31:03;;;;;;;7.36;6.41;;;;;;;22.84;58.30;100687.84;;;;-51
2019/08/25 13:34:03;;;;;;;12.94;6.72;;;;;;;22.86;58.36;100683.16;;;;-48
2019/08/25 13:37:03;;;;;;;12.41;6.99;;;;;;;22.87;58.39;100684.72;;;;-47
2019/08/25 13:40:03;;;;;;;9.41;6.81;;;;;;;22.89;58.36;100678.48;;;;-49
2019/08/25 13:43:03;;;;;;;14.65;7.15;;;;;;;22.89;58.46;100672.99;;;;-49
2019/08/25 13:46:03;;;;;;;13.19;6.81;;;;;;;22.91;58.61;100671.48;;;;-47
2019/08/25 13:49:03;;;;;;;14.63;6.91;;;;;;;22.92;59.03;100666.12;;;;-45
2019/08/25 13:52:03;;;;;;;14.31;6.82;;;;;;;22.92;59.15;100668.48;;;;-50
2019/08/25 13:55:03;;;;;;;13.61;6.68;;;;;;;22.93;58.76;100673.23;;;;-45
2019/08/25 13:58:03;;;;;;;16.45;7.04;;;;;;;22.94;58.70;100668.89;;;;-49
2019/08/25 14:01:03;;;;;;;21.57;7.05;;;;;;;22.96;58.66;100668.34;;;;-52
2019/08/25 14:04:03;;;;;;;20.11;6.79;;;;;;;22.95;59.00;100667.81;;;;-51
2019/08/25 14:07:03;;;;;;;23.55;6.89;;;;;;;22.96;58.81;100664.57;;;;-49
2019/08/25 14:10:03;;;;;;;16.26;6.69;;;;;;;22.98;58.75;100656.45;;;;-50
2019/08/25 14:13:03;;;;;;;14.41;6.80;;;;;;;22.99;58.66;100653.96;;;;-47
2019/08/25 14:16:03;;;;;;;12.45;6.34;;;;;;;23.01;58.81;100652.11;;;;-49
2019/08/25 14:19:03;;;;;;;15.29;6.33;;;;;;;23.02;58.68;100652.88;;;;-50
2019/08/25 14:22:03;;;;;;;17.09;6.87;;;;;;;23.03;58.83;100643.45;;;;-50
2019/08/25 14:25:03;;;;;;;12.47;6.66;;;;;;;23.04;58.64;100648.40;;;;-50
2019/08/25 14:28:03;;;;;;;13.13;6.71;;;;;;;23.05;58.87;100644.29;;;;-51
2019/08/25 14:31:03;;;;;;;15.84;6.45;;;;;;;23.05;58.70;100645.00;;;;-47
2019/08/25 14:34:03;;;;;;;13.70;6.30;;;;;;;23.06;58.68;100640.65;;;;-56
2019/08/25 14:37:03;;;;;;;16.21;6.40;;;;;;;23.07;58.73;100642.40;;;;-60
2019/08/25 14:40:03;;;;;;;17.13;6.29;;;;;;;23.09;58.73;100643.03;;;;-56
2019/08/25 14:43:03;;;;;;;17.63;6.57;;;;;;;23.10;58.73;100636.50;;;;-56
2019/08/25 14:46:03;;;;;;;11.63;6.19;;;;;;;23.10;58.64;100635.22;;;;-57
2019/08/25 14:49:03;;;;;;;16.10;6.79;;;;;;;23.11;58.68;100638.62;;;;-50
2019/08/25 14:52:03;;;;;;;12.18;6.13;;;;;;;23.12;58.59;100639.56;;;;-52
2019/08/25 14:55:04;;;;;;;15.10;6.54;;;;;;;23.12;58.97;100636.39;;;;-60
2019/08/25 14:58:03;;;;;;;14.21;6.30;;;;;;;23.14;58.74;100637.70;;;;-59
2019/08/25 15:01:03;;;;;;;16.91;6.35;;;;;;;23.15;58.57;100639.16;;;;-58
2019/08/25 15:04:03;;;;;;;11.06;6.08;;;;;;;23.16;58.76;100641.48;;;;-59
2019/08/25 15:07:03;;;;;;;10.01;6.24;;;;;;;23.16;58.66;100637.03;;;;-58
2019/08/25 15:10:03;;;;;;;15.18;6.32;;;;;;;23.16;58.72;100639.45;;;;-59
2019/08/25 15:13:03;;;;;;;17.33;6.49;;;;;;;23.16;58.73;100637.03;;;;-57
2019/08/25 15:16:03;;;;;;;13.59;6.42;;;;;;;23.17;58.64;100633.59;;;;-58
2019/08/25 15:19:03;;;;;;;19.05;6.55;;;;;;;23.17;58.71;100638.14;;;;-58
2019/08/25 15:22:03;;;;;;;17.33;6.06;;;;;;;23.19;58.64;100633.39;;;;-58
2019/08/25 15:25:03;;;;;;;13.72;5.90;;;;;;;23.19;58.58;100632.38;;;;-56
2019/08/25 15:28:03;;;;;;;12.94;6.13;;;;;;;23.20;58.61;100638.07;;;;-52
2019/08/25 15:31:04;;;;;;;10.65;5.69;;;;;;;23.21;58.57;100633.89;;;;-57
2019/08/25 15:34:03;;;;;;;16.13;6.33;;;;;;;23.20;58.68;100638.74;;;;-57
2019/08/25 15:37:03;;;;;;;11.32;6.15;;;;;;;23.21;58.78;100639.34;;;;-55
2019/08/25 15:40:03;;;;;;;20.05;6.49;;;;;;;23.21;58.80;100637.09;;;;-58
2019/08/25 15:43:03;;;;;;;20.51;6.65;;;;;;;23.22;58.88;100636.11;;;;-55
2019/08/25 15:46:03;;;;;;;16.28;6.28;;;;;;;23.23;58.74;100640.36;;;;-56
2019/08/25 15:49:03;;;;;;;15.51;6.31;;;;;;;23.25;58.67;100643.12;;;;-57
2019/08/25 15:52:03;;;;;;;23.72;6.29;;;;;;;23.23;58.76;100641.88;;;;-60
2019/08/25 15:55:03;;;;;;;21.11;6.57;;;;;;;23.26;58.69;100646.19;;;;-58
2019/08/25 15:58:03;;;;;;;13.70;5.75;;;;;;;23.27;58.58;100654.03;;;;-58
2019/08/25 16:01:03;;;;;;;17.75;5.99;;;;;;;23.27;58.48;100654.88;;;;-58
2019/08/25 16:04:03;;;;;;;22.17;6.11;;;;;;;23.26;58.49;100654.50;;;;-58
2019/08/25 16:07:03;;;;;;;14.30;6.04;;;;;;;23.27;58.68;100657.41;;;;-58
2019/08/25 16:10:03;;;;;;;15.20;6.17;;;;;;;23.25;58.61;100661.31;;;;-53
2019/08/25 16:13:04;;;;;;;15.08;5.75;;;;;;;23.25;58.57;100655.99;;;;-58
2019/08/25 16:16:03;;;;;;;13.19;6.15;;;;;;;23.24;58.66;100657.58;;;;-58
2019/08/25 16:19:03;;;;;;;16.08;6.29;;;;;;;23.25;58.46;100658.45;;;;-54
2019/08/25 16:22:03;;;;;;;23.60;6.24;;;;;;;23.22;58.41;100653.70;;;;-59
2019/08/25 16:25:03;;;;;;;25.57;6.95;;;;;;;23.21;58.56;100654.78;;;;-55
2019/08/25 16:28:03;;;;;;;16.99;6.17;;;;;;;23.21;58.55;100655.29;;;;-54
2019/08/25 16:31:03;;;;;;;21.10;6.28;;;;;;;23.21;58.41;100656.30;;;;-56